sensor_id;sensor_type;location;lat;lon;timestamp;P1;durP1;ratioP1;P2;durP2;ratioP2
55732;SDS011;41637;52.364;9.910;2023-04-15T00:01:45;7.00;;;4.80;;
55732;SDS011;41637;52.364;9.910;2023-04-15T00:04:13;5.90;;;4.30;;
55732;SDS011;41637;52.364;9.910;2023-04-15T00:06:39;7.80;;;4.50;;
55732;SDS011;41637;52.364;9.910;2023-04-15T00:09:06;6.50;;;4.20;;
55732;SDS011;41637;52.364;9.910;2023-04-15T00:11:33;6.40;;;4.50;;
55732;SDS011;41637;52.364;9.910;2023-04-15T00:14:00;5.90;;;4.40;;
55732;SDS011;41637;52.364;9.910;2023-04-15T00:16:27;7.60;;;4.60;;
55732;SDS011;41637;52.364;9.910;2023-04-15T00:18:53;5.30;;;4.40;;
55732;SDS011;41637;52.364;9.910;2023-04-15T00:21:20;6.60;;;4.20;;
55732;SDS011;41637;52.364;9.910;2023-04-15T00:23:46;6.00;;;4.50;;
55732;SDS011;41637;52.364;9.910;2023-04-15T00:26:17;6.70;;;4.50;;
55732;SDS011;41637;52.364;9.910;2023-04-15T00:28:45;5.90;;;4.50;;
55732;SDS011;41637;52.364;9.910;2023-04-15T00:31:12;5.80;;;4.50;;
55732;SDS011;41637;52.364;9.910;2023-04-15T00:33:39;6.40;;;4.50;;
55732;SDS011;41637;52.364;9.910;2023-04-15T00:36:06;5.10;;;4.10;;
55732;SDS011;41637;52.364;9.910;2023-04-15T00:38:33;5.80;;;4.40;;
55732;SDS011;41637;52.364;9.910;2023-04-15T00:41:00;6.20;;;4.50;;
55732;SDS011;41637;52.364;9.910;2023-04-15T00:43:26;7.60;;;4.60;;
55732;SDS011;41637;52.364;9.910;2023-04-15T00:45:53;7.50;;;5.10;;
55732;SDS011;41637;52.364;9.910;2023-04-15T00:48:24;6.90;;;4.70;;
55732;SDS011;41637;52.364;9.910;2023-04-15T00:50:52;6.60;;;4.70;;
55732;SDS011;41637;52.364;9.910;2023-04-15T00:53:18;7.10;;;5.00;;
55732;SDS011;41637;52.364;9.910;2023-04-15T00:55:45;6.00;;;4.90;;
55732;SDS011;41637;52.364;9.910;2023-04-15T00:58:11;6.40;;;4.80;;
55732;SDS011;41637;52.364;9.910;2023-04-15T01:00:38;7.70;;;4.90;;
55732;SDS011;41637;52.364;9.910;2023-04-15T01:03:06;6.90;;;5.10;;
55732;SDS011;41637;52.364;9.910;2023-04-15T01:05:33;6.30;;;5.20;;
55732;SDS011;41637;52.364;9.910;2023-04-15T01:08:00;8.70;;;5.40;;
55732;SDS011;41637;52.364;9.910;2023-04-15T01:10:26;6.80;;;5.50;;
55732;SDS011;41637;52.364;9.910;2023-04-15T01:12:53;8.40;;;5.90;;
55732;SDS011;41637;52.364;9.910;2023-04-15T01:15:20;9.10;;;5.80;;
55732;SDS011;41637;52.364;9.910;2023-04-15T01:17:47;6.80;;;5.30;;
55732;SDS011;41637;52.364;9.910;2023-04-15T02:21:25;10.20;;;8.10;;
55732;SDS011;41637;52.364;9.910;2023-04-15T02:23:52;10.90;;;8.20;;
55732;SDS011;41637;52.364;9.910;2023-04-15T02:26:19;11.90;;;9.30;;
55732;SDS011;41637;52.364;9.910;2023-04-15T02:28:46;12.20;;;8.80;;
55732;SDS011;41637;52.364;9.910;2023-04-15T02:31:14;13.30;;;9.70;;
55732;SDS011;41637;52.364;9.910;2023-04-15T02:33:41;13.20;;;9.10;;
55732;SDS011;41637;52.364;9.910;2023-04-15T02:36:07;15.10;;;9.70;;
55732;SDS011;41637;52.364;9.910;2023-04-15T02:38:35;13.40;;;10.00;;
55732;SDS011;41637;52.364;9.910;2023-04-15T02:41:03;12.80;;;9.20;;
55732;SDS011;41637;52.364;9.910;2023-04-15T02:43:30;13.50;;;9.20;;
55732;SDS011;41637;52.364;9.910;2023-04-15T02:45:56;13.80;;;9.50;;
55732;SDS011;41637;52.364;9.910;2023-04-15T02:48:23;14.40;;;9.50;;
55732;SDS011;41637;52.364;9.910;2023-04-15T02:50:50;12.40;;;9.00;;
55732;SDS011;41637;52.364;9.910;2023-04-15T02:53:17;13.20;;;9.60;;
55732;SDS011;41637;52.364;9.910;2023-04-15T02:55:45;13.50;;;9.70;;
55732;SDS011;41637;52.364;9.910;2023-04-15T02:58:11;13.00;;;9.90;;
55732;SDS011;41637;52.364;9.910;2023-04-15T03:00:38;13.40;;;9.60;;
55732;SDS011;41637;52.364;9.910;2023-04-15T03:03:04;14.20;;;10.10;;
55732;SDS011;41637;52.364;9.910;2023-04-15T03:05:31;15.70;;;10.10;;
55732;SDS011;41637;52.364;9.910;2023-04-15T03:07:58;13.50;;;10.00;;
55732;SDS011;41637;52.364;9.910;2023-04-15T03:10:26;13.20;;;9.80;;
55732;SDS011;41637;52.364;9.910;2023-04-15T03:12:53;14.80;;;10.40;;
55732;SDS011;41637;52.364;9.910;2023-04-15T03:15:20;15.40;;;10.60;;
55732;SDS011;41637;52.364;9.910;2023-04-15T03:17:46;13.70;;;9.70;;
55732;SDS011;41637;52.364;9.910;2023-04-15T03:20:15;13.50;;;10.10;;
55732;SDS011;41637;52.364;9.910;2023-04-15T03:22:42;13.70;;;9.70;;
55732;SDS011;41637;52.364;9.910;2023-04-15T03:25:08;15.40;;;10.70;;
55732;SDS011;41637;52.364;9.910;2023-04-15T03:27:35;15.60;;;10.90;;
55732;SDS011;41637;52.364;9.910;2023-04-15T03:30:03;13.80;;;10.40;;
55732;SDS011;41637;52.364;9.910;2023-04-15T03:32:30;16.90;;;11.70;;
55732;SDS011;41637;52.364;9.910;2023-04-15T03:34:56;15.30;;;10.90;;
55732;SDS011;41637;52.364;9.910;2023-04-15T03:37:23;15.70;;;11.40;;
55732;SDS011;41637;52.364;9.910;2023-04-15T03:39:50;17.50;;;12.10;;
55732;SDS011;41637;52.364;9.910;2023-04-15T03:42:17;16.50;;;12.70;;
55732;SDS011;41637;52.364;9.910;2023-04-15T03:44:43;17.70;;;12.70;;
55732;SDS011;41637;52.364;9.910;2023-04-15T03:47:10;19.40;;;13.00;;
55732;SDS011;41637;52.364;9.910;2023-04-15T03:49:37;19.60;;;13.40;;
55732;SDS011;41637;52.364;9.910;2023-04-15T03:52:03;20.30;;;14.20;;
55732;SDS011;41637;52.364;9.910;2023-04-15T03:54:31;17.80;;;12.80;;
55732;SDS011;41637;52.364;9.910;2023-04-15T03:56:57;19.60;;;13.90;;
55732;SDS011;41637;52.364;9.910;2023-04-15T03:59:24;20.20;;;13.30;;
55732;SDS011;41637;52.364;9.910;2023-04-15T04:01:51;23.00;;;13.80;;
55732;SDS011;41637;52.364;9.910;2023-04-15T04:04:18;20.30;;;14.50;;
55732;SDS011;41637;52.364;9.910;2023-04-15T04:06:45;20.20;;;13.00;;
55732;SDS011;41637;52.364;9.910;2023-04-15T04:09:12;20.90;;;13.80;;
55732;SDS011;41637;52.364;9.910;2023-04-15T04:11:38;19.70;;;14.10;;
55732;SDS011;41637;52.364;9.910;2023-04-15T04:14:05;21.70;;;14.90;;
55732;SDS011;41637;52.364;9.910;2023-04-15T04:16:32;21.40;;;14.40;;
55732;SDS011;41637;52.364;9.910;2023-04-15T04:18:59;22.20;;;15.40;;
55732;SDS011;41637;52.364;9.910;2023-04-15T04:21:26;25.10;;;15.80;;
55732;SDS011;41637;52.364;9.910;2023-04-15T04:23:53;24.00;;;16.30;;
55732;SDS011;41637;52.364;9.910;2023-04-15T04:26:20;21.90;;;14.90;;
55732;SDS011;41637;52.364;9.910;2023-04-15T04:28:46;22.30;;;15.40;;
55732;SDS011;41637;52.364;9.910;2023-04-15T04:31:13;21.80;;;14.60;;
55732;SDS011;41637;52.364;9.910;2023-04-15T04:33:40;23.60;;;16.70;;
55732;SDS011;41637;52.364;9.910;2023-04-15T04:36:06;24.80;;;16.90;;
55732;SDS011;41637;52.364;9.910;2023-04-15T04:38:33;24.60;;;16.00;;
55732;SDS011;41637;52.364;9.910;2023-04-15T04:41:00;27.60;;;17.40;;
55732;SDS011;41637;52.364;9.910;2023-04-15T04:43:27;24.70;;;16.90;;
55732;SDS011;41637;52.364;9.910;2023-04-15T04:45:53;25.30;;;16.10;;
55732;SDS011;41637;52.364;9.910;2023-04-15T04:48:21;26.70;;;17.60;;
55732;SDS011;41637;52.364;9.910;2023-04-15T04:50:48;25.50;;;16.70;;
55732;SDS011;41637;52.364;9.910;2023-04-15T04:53:14;26.10;;;17.00;;
55732;SDS011;41637;52.364;9.910;2023-04-15T04:55:41;27.90;;;16.90;;
55732;SDS011;41637;52.364;9.910;2023-04-15T04:58:07;25.00;;;16.20;;
55732;SDS011;41637;52.364;9.910;2023-04-15T05:00:34;27.70;;;16.50;;
55732;SDS011;41637;52.364;9.910;2023-04-15T05:03:02;29.20;;;18.20;;
55732;SDS011;41637;52.364;9.910;2023-04-15T05:05:29;28.30;;;17.50;;
55732;SDS011;41637;52.364;9.910;2023-04-15T05:07:56;25.30;;;16.90;;
55732;SDS011;41637;52.364;9.910;2023-04-15T05:10:23;27.00;;;17.00;;
55732;SDS011;41637;52.364;9.910;2023-04-15T05:12:49;27.00;;;17.30;;
55732;SDS011;41637;52.364;9.910;2023-04-15T05:15:17;27.20;;;17.90;;
55732;SDS011;41637;52.364;9.910;2023-04-15T05:17:44;27.20;;;17.40;;
55732;SDS011;41637;52.364;9.910;2023-04-15T05:20:11;23.20;;;15.40;;
55732;SDS011;41637;52.364;9.910;2023-04-15T05:22:38;24.70;;;15.80;;
55732;SDS011;41637;52.364;9.910;2023-04-15T05:25:04;24.20;;;16.10;;
55732;SDS011;41637;52.364;9.910;2023-04-15T05:27:31;25.60;;;16.50;;
55732;SDS011;41637;52.364;9.910;2023-04-15T05:29:58;25.40;;;17.20;;
55732;SDS011;41637;52.364;9.910;2023-04-15T05:32:25;25.00;;;15.80;;
55732;SDS011;41637;52.364;9.910;2023-04-15T05:34:51;23.80;;;15.40;;
55732;SDS011;41637;52.364;9.910;2023-04-15T05:37:18;28.00;;;18.80;;
55732;SDS011;41637;52.364;9.910;2023-04-15T05:39:47;26.10;;;17.50;;
55732;SDS011;41637;52.364;9.910;2023-04-15T05:42:14;26.70;;;16.90;;
55732;SDS011;41637;52.364;9.910;2023-04-15T05:44:40;24.20;;;16.20;;
55732;SDS011;41637;52.364;9.910;2023-04-15T05:47:07;24.00;;;15.20;;
55732;SDS011;41637;52.364;9.910;2023-04-15T05:49:35;22.90;;;15.30;;
55732;SDS011;41637;52.364;9.910;2023-04-15T05:52:02;24.20;;;15.50;;
55732;SDS011;41637;52.364;9.910;2023-04-15T05:54:28;23.00;;;15.30;;
55732;SDS011;41637;52.364;9.910;2023-04-15T05:56:55;19.50;;;13.60;;
55732;SDS011;41637;52.364;9.910;2023-04-15T05:59:22;21.80;;;13.90;;
55732;SDS011;41637;52.364;9.910;2023-04-15T06:01:49;18.00;;;12.40;;
55732;SDS011;41637;52.364;9.910;2023-04-15T06:04:17;21.50;;;13.90;;
55732;SDS011;41637;52.364;9.910;2023-04-15T06:06:44;18.60;;;13.20;;
55732;SDS011;41637;52.364;9.910;2023-04-15T06:09:11;18.10;;;13.20;;
55732;SDS011;41637;52.364;9.910;2023-04-15T06:11:38;19.50;;;13.60;;
55732;SDS011;41637;52.364;9.910;2023-04-15T06:14:06;17.80;;;12.30;;
55732;SDS011;41637;52.364;9.910;2023-04-15T06:16:33;15.50;;;10.50;;
55732;SDS011;41637;52.364;9.910;2023-04-15T06:19:02;17.40;;;12.30;;
55732;SDS011;41637;52.364;9.910;2023-04-15T06:21:29;15.90;;;10.90;;
55732;SDS011;41637;52.364;9.910;2023-04-15T06:23:57;16.10;;;11.70;;
55732;SDS011;41637;52.364;9.910;2023-04-15T06:26:25;15.70;;;10.10;;
55732;SDS011;41637;52.364;9.910;2023-04-15T06:28:52;17.20;;;11.20;;
55732;SDS011;41637;52.364;9.910;2023-04-15T06:31:19;17.30;;;11.00;;
55732;SDS011;41637;52.364;9.910;2023-04-15T06:33:45;17.50;;;10.90;;
55732;SDS011;41637;52.364;9.910;2023-04-15T06:36:12;14.70;;;10.30;;
55732;SDS011;41637;52.364;9.910;2023-04-15T06:38:39;15.80;;;10.20;;
55732;SDS011;41637;52.364;9.910;2023-04-15T06:41:06;15.50;;;10.10;;
55732;SDS011;41637;52.364;9.910;2023-04-15T06:43:33;14.60;;;10.10;;
55732;SDS011;41637;52.364;9.910;2023-04-15T06:45:59;14.70;;;9.90;;
55732;SDS011;41637;52.364;9.910;2023-04-15T06:48:26;15.80;;;10.00;;
55732;SDS011;41637;52.364;9.910;2023-04-15T06:50:53;14.80;;;10.20;;
55732;SDS011;41637;52.364;9.910;2023-04-15T06:53:20;15.40;;;10.40;;
55732;SDS011;41637;52.364;9.910;2023-04-15T06:55:47;14.50;;;9.90;;
55732;SDS011;41637;52.364;9.910;2023-04-15T06:58:13;16.10;;;10.70;;
55732;SDS011;41637;52.364;9.910;2023-04-15T07:00:40;15.60;;;10.30;;
55732;SDS011;41637;52.364;9.910;2023-04-15T07:03:07;14.30;;;9.80;;
55732;SDS011;41637;52.364;9.910;2023-04-15T07:05:36;14.40;;;9.50;;
55732;SDS011;41637;52.364;9.910;2023-04-15T07:08:03;15.70;;;10.30;;
55732;SDS011;41637;52.364;9.910;2023-04-15T07:10:31;16.50;;;10.60;;
55732;SDS011;41637;52.364;9.910;2023-04-15T07:13:00;16.10;;;9.80;;
55732;SDS011;41637;52.364;9.910;2023-04-15T07:15:27;15.40;;;9.70;;
55732;SDS011;41637;52.364;9.910;2023-04-15T07:17:54;14.90;;;9.50;;
55732;SDS011;41637;52.364;9.910;2023-04-15T07:20:23;13.20;;;8.80;;
55732;SDS011;41637;52.364;9.910;2023-04-15T07:22:51;12.60;;;8.30;;
55732;SDS011;41637;52.364;9.910;2023-04-15T07:25:18;12.10;;;8.60;;
55732;SDS011;41637;52.364;9.910;2023-04-15T07:27:45;11.80;;;8.60;;
55732;SDS011;41637;52.364;9.910;2023-04-15T07:30:11;10.60;;;7.50;;
55732;SDS011;41637;52.364;9.910;2023-04-15T07:32:39;10.50;;;7.20;;
55732;SDS011;41637;52.364;9.910;2023-04-15T07:35:07;10.70;;;7.90;;
55732;SDS011;41637;52.364;9.910;2023-04-15T07:37:35;10.50;;;7.70;;
55732;SDS011;41637;52.364;9.910;2023-04-15T07:40:02;9.40;;;6.50;;
55732;SDS011;41637;52.364;9.910;2023-04-15T07:42:30;8.90;;;6.60;;
55732;SDS011;41637;52.364;9.910;2023-04-15T07:45:00;9.10;;;6.80;;
55732;SDS011;41637;52.364;9.910;2023-04-15T07:47:27;7.90;;;5.80;;
55732;SDS011;41637;52.364;9.910;2023-04-15T07:49:54;7.80;;;5.90;;
55732;SDS011;41637;52.364;9.910;2023-04-15T07:52:24;8.20;;;6.20;;
55732;SDS011;41637;52.364;9.910;2023-04-15T07:54:51;7.00;;;5.40;;
55732;SDS011;41637;52.364;9.910;2023-04-15T07:57:18;7.10;;;5.10;;
55732;SDS011;41637;52.364;9.910;2023-04-15T07:59:44;7.10;;;5.00;;
55732;SDS011;41637;52.364;9.910;2023-04-15T08:02:11;7.00;;;5.00;;
55732;SDS011;41637;52.364;9.910;2023-04-15T08:04:47;6.70;;;4.70;;
55732;SDS011;41637;52.364;9.910;2023-04-15T08:07:14;6.10;;;4.30;;
55732;SDS011;41637;52.364;9.910;2023-04-15T08:09:44;6.40;;;4.50;;
55732;SDS011;41637;52.364;9.910;2023-04-15T08:12:11;6.20;;;4.40;;
55732;SDS011;41637;52.364;9.910;2023-04-15T08:14:38;7.30;;;4.60;;
55732;SDS011;41637;52.364;9.910;2023-04-15T08:17:13;6.90;;;4.80;;
55732;SDS011;41637;52.364;9.910;2023-04-15T08:19:42;6.40;;;4.60;;
55732;SDS011;41637;52.364;9.910;2023-04-15T08:22:09;9.30;;;4.90;;
55732;SDS011;41637;52.364;9.910;2023-04-15T08:24:44;7.20;;;4.40;;
55732;SDS011;41637;52.364;9.910;2023-04-15T08:27:11;6.90;;;4.70;;
55732;SDS011;41637;52.364;9.910;2023-04-15T08:29:38;7.80;;;4.90;;
55732;SDS011;41637;52.364;9.910;2023-04-15T08:32:06;8.00;;;4.80;;
55732;SDS011;41637;52.364;9.910;2023-04-15T08:34:38;6.90;;;4.20;;
55732;SDS011;41637;52.364;9.910;2023-04-15T08:37:05;6.10;;;4.40;;
55732;SDS011;41637;52.364;9.910;2023-04-15T08:39:35;6.80;;;4.40;;
55732;SDS011;41637;52.364;9.910;2023-04-15T08:42:02;5.40;;;3.80;;
55732;SDS011;41637;52.364;9.910;2023-04-15T08:44:35;5.20;;;3.60;;
55732;SDS011;41637;52.364;9.910;2023-04-15T08:47:06;7.10;;;3.90;;
55732;SDS011;41637;52.364;9.910;2023-04-15T08:49:35;4.60;;;3.40;;
55732;SDS011;41637;52.364;9.910;2023-04-15T08:52:06;4.70;;;3.30;;
55732;SDS011;41637;52.364;9.910;2023-04-15T08:54:34;4.40;;;3.40;;
55732;SDS011;41637;52.364;9.910;2023-04-15T08:57:01;5.10;;;3.70;;
55732;SDS011;41637;52.364;9.910;2023-04-15T08:59:29;5.10;;;3.50;;
55732;SDS011;41637;52.364;9.910;2023-04-15T09:01:57;8.30;;;6.10;;
55732;SDS011;41637;52.364;9.910;2023-04-15T09:04:25;5.10;;;3.70;;
55732;SDS011;41637;52.364;9.910;2023-04-15T09:06:53;4.80;;;3.50;;
55732;SDS011;41637;52.364;9.910;2023-04-15T09:09:19;5.10;;;3.40;;
55732;SDS011;41637;52.364;9.910;2023-04-15T09:11:49;5.40;;;3.80;;
55732;SDS011;41637;52.364;9.910;2023-04-15T09:14:16;6.60;;;3.40;;
55732;SDS011;41637;52.364;9.910;2023-04-15T09:19:52;6.20;;;3.80;;
55732;SDS011;41637;52.364;9.910;2023-04-15T09:22:34;5.90;;;4.20;;
55732;SDS011;41637;52.364;9.910;2023-04-15T09:25:02;5.80;;;4.00;;
55732;SDS011;41637;52.364;9.910;2023-04-15T09:27:45;6.80;;;4.40;;
55732;SDS011;41637;52.364;9.910;2023-04-15T09:30:16;6.20;;;4.40;;
55732;SDS011;41637;52.364;9.910;2023-04-15T09:32:53;6.80;;;4.90;;
55732;SDS011;41637;52.364;9.910;2023-04-15T09:35:23;7.50;;;5.00;;
55732;SDS011;41637;52.364;9.910;2023-04-15T09:37:51;7.40;;;5.10;;
55732;SDS011;41637;52.364;9.910;2023-04-15T09:40:32;7.00;;;4.60;;
55732;SDS011;41637;52.364;9.910;2023-04-15T09:43:07;8.10;;;5.30;;
55732;SDS011;41637;52.364;9.910;2023-04-15T09:45:35;9.20;;;5.70;;
55732;SDS011;41637;52.364;9.910;2023-04-15T09:48:18;9.00;;;5.40;;
55732;SDS011;41637;52.364;9.910;2023-04-15T09:50:47;9.00;;;5.70;;
55732;SDS011;41637;52.364;9.910;2023-04-15T09:53:16;9.80;;;6.20;;
55732;SDS011;41637;52.364;9.910;2023-04-15T09:55:45;9.70;;;6.40;;
55732;SDS011;41637;52.364;9.910;2023-04-15T09:58:19;9.90;;;6.40;;
55732;SDS011;41637;52.364;9.910;2023-04-15T10:00:47;10.00;;;6.60;;
55732;SDS011;41637;52.364;9.910;2023-04-15T10:03:22;10.20;;;6.80;;
55732;SDS011;41637;52.364;9.910;2023-04-15T10:05:52;11.30;;;7.50;;
55732;SDS011;41637;52.364;9.910;2023-04-15T10:08:28;11.10;;;7.50;;
55732;SDS011;41637;52.364;9.910;2023-04-15T10:10:56;11.50;;;7.90;;
55732;SDS011;41637;52.364;9.910;2023-04-15T10:13:24;12.00;;;7.40;;
55732;SDS011;41637;52.364;9.910;2023-04-15T10:18:24;13.40;;;8.90;;
55732;SDS011;41637;52.364;9.910;2023-04-15T10:21:01;15.00;;;9.00;;
55732;SDS011;41637;52.364;9.910;2023-04-15T10:23:31;14.60;;;9.80;;
55732;SDS011;41637;52.364;9.910;2023-04-15T10:25:57;17.20;;;10.50;;
55732;SDS011;41637;52.364;9.910;2023-04-15T10:28:26;19.70;;;11.20;;
55732;SDS011;41637;52.364;9.910;2023-04-15T10:30:53;17.20;;;10.40;;
55732;SDS011;41637;52.364;9.910;2023-04-15T10:33:22;16.60;;;10.80;;
55732;SDS011;41637;52.364;9.910;2023-04-15T10:35:50;18.50;;;11.20;;
55732;SDS011;41637;52.364;9.910;2023-04-15T10:38:34;18.80;;;12.20;;
55732;SDS011;41637;52.364;9.910;2023-04-15T10:41:16;21.80;;;12.90;;
55732;SDS011;41637;52.364;9.910;2023-04-15T10:43:53;18.60;;;12.70;;
55732;SDS011;41637;52.364;9.910;2023-04-15T10:46:37;19.80;;;12.20;;
55732;SDS011;41637;52.364;9.910;2023-04-15T10:52:01;25.20;;;14.10;;
55732;SDS011;41637;52.364;9.910;2023-04-15T10:59:29;28.20;;;17.20;;
55732;SDS011;41637;52.364;9.910;2023-04-15T11:02:00;25.00;;;15.50;;
55732;SDS011;41637;52.364;9.910;2023-04-15T11:07:36;24.30;;;15.60;;
55732;SDS011;41637;52.364;9.910;2023-04-15T11:10:49;24.30;;;15.50;;
55732;SDS011;41637;52.364;9.910;2023-04-15T11:12:56;25.70;;;16.40;;
55732;SDS011;41637;52.364;9.910;2023-04-15T11:15:29;27.10;;;18.10;;
55732;SDS011;41637;52.364;9.910;2023-04-15T11:18:13;28.90;;;18.60;;
55732;SDS011;41637;52.364;9.910;2023-04-15T11:20:44;28.80;;;18.30;;
55732;SDS011;41637;52.364;9.910;2023-04-15T11:23:27;28.10;;;18.70;;
55732;SDS011;41637;52.364;9.910;2023-04-15T11:25:57;32.10;;;19.40;;
55732;SDS011;41637;52.364;9.910;2023-04-15T11:28:25;30.60;;;20.00;;
55732;SDS011;41637;52.364;9.910;2023-04-15T11:30:54;32.60;;;19.50;;
55732;SDS011;41637;52.364;9.910;2023-04-15T11:33:21;29.40;;;19.10;;
55732;SDS011;41637;52.364;9.910;2023-04-15T11:35:50;30.00;;;19.00;;
55732;SDS011;41637;52.364;9.910;2023-04-15T11:38:19;28.30;;;19.10;;
55732;SDS011;41637;52.364;9.910;2023-04-15T11:40:47;32.20;;;20.60;;
55732;SDS011;41637;52.364;9.910;2023-04-15T11:43:17;31.60;;;20.20;;
55732;SDS011;41637;52.364;9.910;2023-04-15T11:45:58;30.10;;;19.10;;
55732;SDS011;41637;52.364;9.910;2023-04-15T11:48:33;32.10;;;21.20;;
55732;SDS011;41637;52.364;9.910;2023-04-15T11:51:02;34.10;;;21.80;;
55732;SDS011;41637;52.364;9.910;2023-04-15T11:56:24;35.20;;;22.70;;
55732;SDS011;41637;52.364;9.910;2023-04-15T11:58:55;34.00;;;21.40;;
55732;SDS011;41637;52.364;9.910;2023-04-15T12:01:35;36.90;;;22.70;;
55732;SDS011;41637;52.364;9.910;2023-04-15T12:04:11;35.50;;;22.40;;
55732;SDS011;41637;52.364;9.910;2023-04-15T12:06:39;35.00;;;23.30;;
55732;SDS011;41637;52.364;9.910;2023-04-15T12:11:42;35.00;;;22.10;;
55732;SDS011;41637;52.364;9.910;2023-04-15T12:14:20;37.40;;;23.40;;
55732;SDS011;41637;52.364;9.910;2023-04-15T12:16:51;36.90;;;24.00;;
55732;SDS011;41637;52.364;9.910;2023-04-15T12:19:24;35.90;;;23.20;;
55732;SDS011;41637;52.364;9.910;2023-04-15T12:22:02;38.00;;;25.30;;
55732;SDS011;41637;52.364;9.910;2023-04-15T12:24:34;36.70;;;24.20;;
55732;SDS011;41637;52.364;9.910;2023-04-15T12:27:03;36.50;;;22.30;;
55732;SDS011;41637;52.364;9.910;2023-04-15T12:29:35;35.00;;;22.90;;
55732;SDS011;41637;52.364;9.910;2023-04-15T12:32:06;34.30;;;22.70;;
55732;SDS011;41637;52.364;9.910;2023-04-15T12:37:06;31.30;;;19.60;;
55732;SDS011;41637;52.364;9.910;2023-04-15T12:39:38;34.30;;;22.00;;
55732;SDS011;41637;52.364;9.910;2023-04-15T12:42:07;35.50;;;23.20;;
55732;SDS011;41637;52.364;9.910;2023-04-15T12:44:35;35.50;;;22.60;;
55732;SDS011;41637;52.364;9.910;2023-04-15T12:47:03;40.70;;;24.30;;
55732;SDS011;41637;52.364;9.910;2023-04-15T12:49:31;35.70;;;23.50;;
55732;SDS011;41637;52.364;9.910;2023-04-15T12:51:59;39.40;;;25.40;;
55732;SDS011;41637;52.364;9.910;2023-04-15T12:54:27;35.50;;;24.20;;
55732;SDS011;41637;52.364;9.910;2023-04-15T12:57:04;40.60;;;25.60;;
55732;SDS011;41637;52.364;9.910;2023-04-15T12:59:33;42.50;;;26.50;;
55732;SDS011;41637;52.364;9.910;2023-04-15T13:02:00;39.70;;;24.80;;
55732;SDS011;41637;52.364;9.910;2023-04-15T13:04:28;36.60;;;23.30;;
55732;SDS011;41637;52.364;9.910;2023-04-15T13:06:58;36.50;;;22.70;;
55732;SDS011;41637;52.364;9.910;2023-04-15T13:09:24;38.20;;;24.80;;
55732;SDS011;41637;52.364;9.910;2023-04-15T13:11:52;32.60;;;21.90;;
55732;SDS011;41637;52.364;9.910;2023-04-15T13:14:19;35.30;;;22.30;;
55732;SDS011;41637;52.364;9.910;2023-04-15T13:16:46;34.80;;;21.90;;
55732;SDS011;41637;52.364;9.910;2023-04-15T13:19:13;35.00;;;22.90;;
55732;SDS011;41637;52.364;9.910;2023-04-15T13:21:40;34.60;;;22.80;;
55732;SDS011;41637;52.364;9.910;2023-04-15T13:24:08;36.70;;;23.80;;
55732;SDS011;41637;52.364;9.910;2023-04-15T13:26:35;34.20;;;22.40;;
55732;SDS011;41637;52.364;9.910;2023-04-15T13:29:02;31.00;;;21.20;;
55732;SDS011;41637;52.364;9.910;2023-04-15T13:31:32;31.70;;;21.60;;
55732;SDS011;41637;52.364;9.910;2023-04-15T13:33:59;33.00;;;22.60;;
55732;SDS011;41637;52.364;9.910;2023-04-15T13:36:26;29.60;;;21.10;;
55732;SDS011;41637;52.364;9.910;2023-04-15T13:38:53;29.50;;;20.70;;
55732;SDS011;41637;52.364;9.910;2023-04-15T13:41:19;27.30;;;20.30;;
55732;SDS011;41637;52.364;9.910;2023-04-15T13:43:47;26.20;;;19.20;;
55732;SDS011;41637;52.364;9.910;2023-04-15T13:46:13;27.10;;;19.90;;
55732;SDS011;41637;52.364;9.910;2023-04-15T13:48:40;26.90;;;19.30;;
55732;SDS011;41637;52.364;9.910;2023-04-15T13:51:07;24.20;;;18.10;;
55732;SDS011;41637;52.364;9.910;2023-04-15T13:53:34;23.60;;;18.40;;
55732;SDS011;41637;52.364;9.910;2023-04-15T13:56:07;22.70;;;16.80;;
55732;SDS011;41637;52.364;9.910;2023-04-15T13:58:35;22.10;;;16.90;;
55732;SDS011;41637;52.364;9.910;2023-04-15T14:01:03;19.40;;;15.50;;
55732;SDS011;41637;52.364;9.910;2023-04-15T14:03:33;20.20;;;15.00;;
55732;SDS011;41637;52.364;9.910;2023-04-15T14:06:01;19.40;;;15.20;;
55732;SDS011;41637;52.364;9.910;2023-04-15T14:08:28;20.80;;;15.90;;
55732;SDS011;41637;52.364;9.910;2023-04-15T14:10:55;17.50;;;14.50;;
55732;SDS011;41637;52.364;9.910;2023-04-15T14:13:22;19.00;;;14.40;;
55732;SDS011;41637;52.364;9.910;2023-04-15T14:15:49;17.30;;;14.60;;
55732;SDS011;41637;52.364;9.910;2023-04-15T14:20:51;17.80;;;13.50;;
55732;SDS011;41637;52.364;9.910;2023-04-15T14:23:32;16.70;;;13.30;;
55732;SDS011;41637;52.364;9.910;2023-04-15T14:26:06;16.50;;;13.10;;
55732;SDS011;41637;52.364;9.910;2023-04-15T14:28:44;18.50;;;14.00;;
55732;SDS011;41637;52.364;9.910;2023-04-15T14:31:21;18.90;;;14.00;;
55732;SDS011;41637;52.364;9.910;2023-04-15T14:33:48;17.40;;;14.20;;
55732;SDS011;41637;52.364;9.910;2023-04-15T14:36:16;16.40;;;13.40;;
55732;SDS011;41637;52.364;9.910;2023-04-15T14:38:45;17.10;;;14.20;;
55732;SDS011;41637;52.364;9.910;2023-04-15T14:41:13;17.70;;;14.30;;
55732;SDS011;41637;52.364;9.910;2023-04-15T14:43:41;18.20;;;14.60;;
55732;SDS011;41637;52.364;9.910;2023-04-15T14:46:09;16.90;;;14.30;;
55732;SDS011;41637;52.364;9.910;2023-04-15T14:48:38;17.80;;;13.70;;
55732;SDS011;41637;52.364;9.910;2023-04-15T14:51:08;20.00;;;15.30;;
55732;SDS011;41637;52.364;9.910;2023-04-15T14:53:49;18.10;;;14.90;;
55732;SDS011;41637;52.364;9.910;2023-04-15T14:56:20;19.00;;;14.60;;
55732;SDS011;41637;52.364;9.910;2023-04-15T14:58:50;18.30;;;14.60;;
55732;SDS011;41637;52.364;9.910;2023-04-15T15:01:24;17.20;;;13.70;;
55732;SDS011;41637;52.364;9.910;2023-04-15T15:03:53;18.60;;;14.70;;
55732;SDS011;41637;52.364;9.910;2023-04-15T15:06:21;17.60;;;14.10;;
55732;SDS011;41637;52.364;9.910;2023-04-15T15:08:48;18.20;;;15.30;;
55732;SDS011;41637;52.364;9.910;2023-04-15T15:11:14;15.80;;;12.90;;
55732;SDS011;41637;52.364;9.910;2023-04-15T15:13:42;16.00;;;13.10;;
55732;SDS011;41637;52.364;9.910;2023-04-15T15:16:09;17.00;;;13.80;;
55732;SDS011;41637;52.364;9.910;2023-04-15T15:18:39;16.80;;;12.90;;
55732;SDS011;41637;52.364;9.910;2023-04-15T15:21:06;14.20;;;11.80;;
55732;SDS011;41637;52.364;9.910;2023-04-15T15:23:35;14.80;;;12.20;;
55732;SDS011;41637;52.364;9.910;2023-04-15T15:26:02;16.70;;;12.80;;
55732;SDS011;41637;52.364;9.910;2023-04-15T15:28:36;14.20;;;12.70;;
55732;SDS011;41637;52.364;9.910;2023-04-15T15:31:07;15.70;;;13.40;;
55732;SDS011;41637;52.364;9.910;2023-04-15T15:33:36;16.10;;;13.40;;
55732;SDS011;41637;52.364;9.910;2023-04-15T15:36:10;15.40;;;12.20;;
55732;SDS011;41637;52.364;9.910;2023-04-15T15:38:37;14.20;;;12.20;;
55732;SDS011;41637;52.364;9.910;2023-04-15T15:41:05;15.70;;;12.90;;
55732;SDS011;41637;52.364;9.910;2023-04-15T15:43:35;15.40;;;12.30;;
55732;SDS011;41637;52.364;9.910;2023-04-15T15:46:02;13.40;;;11.30;;
55732;SDS011;41637;52.364;9.910;2023-04-15T15:48:32;14.40;;;11.90;;
55732;SDS011;41637;52.364;9.910;2023-04-15T15:51:09;15.70;;;11.60;;
55732;SDS011;41637;52.364;9.910;2023-04-15T15:53:38;14.10;;;10.70;;
55732;SDS011;41637;52.364;9.910;2023-04-15T15:56:20;13.00;;;11.20;;
55732;SDS011;41637;52.364;9.910;2023-04-15T15:58:53;10.90;;;9.70;;
55732;SDS011;41637;52.364;9.910;2023-04-15T16:01:22;10.90;;;8.90;;
55732;SDS011;41637;52.364;9.910;2023-04-15T16:03:49;10.00;;;8.60;;
55732;SDS011;41637;52.364;9.910;2023-04-15T16:06:16;10.20;;;8.80;;